Time;durP1;ratioP1;P1;durP2;ratioP2;P2;SDS_P1;SDS_P2;PMS_P1;PMS_P2;Temp;Humidity;BMP_temperature;BMP_pressure;BME280_temperature;BME280_humidity;BME280_pressure;Samples;Min_cycle;Max_cycle;Signal;HPM_P1;HPM_P2
2021/07/30 00:00:04;;;;;;;7.80;2.25;;;19.30;69.20;;;;;;5089934;28;20066;-66
2021/07/30 00:02:32;;;;;;;7.75;2.38;;;19.20;69.30;;;;;;5091425;28;20032;-67
2021/07/30 00:04:58;;;;;;;7.47;2.00;;;19.20;69.50;;;;;;5090258;28;20487;-66
2021/07/30 00:07:23;;;;;;;4.25;1.65;;;19.10;69.60;;;;;;5091158;28;20032;-66
2021/07/30 00:09:49;;;;;;;2.17;1.38;;;19.10;69.60;;;;;;5090493;28;20028;-66
2021/07/30 00:12:15;;;;;;;5.80;1.73;;;19.10;69.80;;;;;;5091455;28;20130;-66
2021/07/30 00:14:40;;;;;;;4.22;1.52;;;19.10;70.00;;;;;;5091001;28;20383;-66
2021/07/30 00:17:06;;;;;;;4.00;1.73;;;19.00;70.00;;;;;;5090586;28;20837;-67
2021/07/30 00:19:33;;;;;;;3.63;1.42;;;19.00;70.10;;;;;;5091528;28;20028;-66
2021/07/30 00:21:59;;;;;;;5.05;2.05;;;18.90;70.10;;;;;;5089936;28;20065;-67
2021/07/30 00:24:24;;;;;;;8.02;2.03;;;18.90;70.20;;;;;;5091111;28;20062;-67
2021/07/30 00:26:50;;;;;;;8.93;2.53;;;18.90;70.20;;;;;;5091552;28;20080;-67
2021/07/30 00:29:17;;;;;;;10.93;2.70;;;18.90;70.40;;;;;;5089515;28;20025;-67
2021/07/30 00:31:42;;;;;;;16.77;3.00;;;18.90;70.20;;;;;;5090517;28;20062;-67
2021/07/30 00:34:08;;;;;;;11.57;2.53;;;18.90;70.40;;;;;;5089922;28;20055;-66
2021/07/30 00:36:34;;;;;;;6.60;3.15;;;18.90;70.40;;;;;;5091029;28;20470;-66
2021/07/30 00:38:59;;;;;;;9.35;2.13;;;18.90;70.30;;;;;;5089145;28;20375;-67
2021/07/30 00:41:25;;;;;;;13.27;3.00;;;18.90;70.20;;;;;;5091482;28;20463;-67
2021/07/30 00:43:51;;;;;;;15.48;3.53;;;18.90;70.00;;;;;;5094148;28;20027;-66
2021/07/30 00:46:17;;;;;;;6.32;1.77;;;18.90;70.00;;;;;;5093803;28;20028;-67
2021/07/30 00:48:43;;;;;;;5.75;2.10;;;18.80;69.80;;;;;;5094402;28;20053;-66
2021/07/30 00:51:09;;;;;;;5.13;2.13;;;18.80;69.90;;;;;;5094504;28;20038;-67
2021/07/30 00:53:35;;;;;;;11.90;2.45;;;18.90;69.90;;;;;;5094480;28;20032;-67
2021/07/30 00:56:01;;;;;;;8.45;3.03;;;18.80;70.00;;;;;;5093546;28;20040;-67
2021/07/30 00:58:28;;;;;;;3.35;1.70;;;18.80;70.20;;;;;;5092276;28;20077;-67
2021/07/30 01:00:55;;;;;;;3.17;1.40;;;18.80;69.90;;;;;;5084879;28;20032;-66
2021/07/30 01:03:21;;;;;;;7.50;2.13;;;18.70;69.90;;;;;;5087299;28;20452;-67
2021/07/30 01:05:47;;;;;;;8.90;3.20;;;18.70;70.00;;;;;;5091078;28;20028;-67
2021/07/30 01:08:13;;;;;;;10.43;2.78;;;18.70;70.50;;;;;;5094082;28;20032;-67
2021/07/30 01:10:39;;;;;;;12.18;3.10;;;18.60;70.40;;;;;;5093495;28;20034;-66
2021/07/30 01:13:04;;;;;;;12.95;2.78;;;18.70;70.60;;;;;;5083314;28;20139;-66
2021/07/30 01:15:30;;;;;;;7.38;2.80;;;18.60;70.50;;;;;;5092999;28;20023;-66
2021/07/30 01:17:56;;;;;;;10.77;3.08;;;18.60;70.70;;;;;;5087244;28;20073;-66
2021/07/30 01:20:24;;;;;;;1.65;1.13;;;18.60;70.80;;;;;;5093227;28;20029;-67
2021/07/30 01:22:53;;;;;;;11.65;2.20;;;18.50;70.40;;;;;;5094082;28;20028;-66
2021/07/30 01:25:20;;;;;;;4.20;1.75;;;18.50;70.60;;;;;;5091859;28;20093;-67
2021/07/30 01:27:46;;;;;;;9.02;3.42;;;18.50;70.50;;;;;;5093591;28;20032;-67
2021/07/30 01:30:16;;;;;;;7.75;2.58;;;18.50;70.90;;;;;;5094119;28;20049;-66
2021/07/30 01:32:42;;;;;;;4.78;2.08;;;18.40;70.90;;;;;;5090540;28;20074;-66
2021/07/30 01:35:08;;;;;;;9.15;3.40;;;18.40;70.70;;;;;;5087672;28;20024;-67
2021/07/30 01:37:34;;;;;;;5.40;2.15;;;18.40;71.10;;;;;;5092905;28;20077;-66
2021/07/30 01:40:00;;;;;;;8.50;2.95;;;18.40;70.90;;;;;;5093155;28;20051;-66
2021/07/30 01:42:26;;;;;;;9.93;3.03;;;18.30;71.10;;;;;;5092781;28;20024;-66
2021/07/30 01:44:52;;;;;;;9.15;3.28;;;18.30;71.10;;;;;;5093733;28;20024;-66
2021/07/30 01:47:21;;;;;;;9.75;2.60;;;18.30;71.40;;;;;;5092749;28;20043;-67
2021/07/30 01:49:48;;;;;;;8.20;2.50;;;18.30;71.30;;;;;;5092255;28;20095;-66
2021/07/30 01:52:14;;;;;;;11.93;2.72;;;18.20;71.30;;;;;;5087250;28;20033;-67
2021/07/30 01:54:40;;;;;;;5.75;2.17;;;18.20;71.40;;;;;;5082805;28;20024;-67
2021/07/30 01:57:05;;;;;;;8.77;1.88;;;18.10;71.60;;;;;;5080733;28;20431;-67
2021/07/30 01:59:31;;;;;;;9.75;3.50;;;18.10;71.80;;;;;;5092352;28;20028;-67
2021/07/30 02:01:57;;;;;;;8.10;2.70;;;18.10;72.20;;;;;;5092094;28;20032;-66
2021/07/30 02:04:23;;;;;;;12.98;3.53;;;18.10;72.20;;;;;;5086589;28;20026;-66
2021/07/30 02:06:49;;;;;;;8.55;3.45;;;18.10;72.30;;;;;;5089516;28;20035;-67
2021/07/30 02:09:15;;;;;;;7.63;2.45;;;18.10;72.30;;;;;;5087185;28;20032;-66
2021/07/30 02:11:42;;;;;;;9.93;2.10;;;18.00;72.30;;;;;;5092426;28;20138;-66
2021/07/30 02:14:15;;;;;;;11.48;3.25;;;17.90;72.10;;;;;;5090797;28;20115;-67
2021/07/30 02:16:41;;;;;;;8.00;2.67;;;17.90;72.30;;;;;;5080981;28;20035;-67
2021/07/30 02:19:06;;;;;;;7.38;2.58;;;17.90;72.40;;;;;;5093228;28;20134;-66
2021/07/30 02:21:32;;;;;;;7.03;2.08;;;17.90;72.40;;;;;;5092127;28;20024;-66
2021/07/30 02:23:58;;;;;;;5.18;2.25;;;17.90;72.50;;;;;;5091293;28;20501;-66
2021/07/30 02:26:23;;;;;;;9.93;2.78;;;17.80;72.50;;;;;;5092171;28;20554;-67
2021/07/30 02:28:49;;;;;;;13.43;4.05;;;17.80;72.90;;;;;;5092057;28;20039;-66
2021/07/30 02:31:15;;;;;;;7.40;2.55;;;17.80;73.30;;;;;;5091708;28;20075;-67
2021/07/30 02:33:40;;;;;;;8.82;2.00;;;17.80;73.10;;;;;;5092840;28;20021;-66
2021/07/30 02:36:06;;;;;;;5.70;2.78;;;17.80;73.00;;;;;;5092227;28;20072;-66
2021/07/30 02:38:32;;;;;;;5.25;2.53;;;17.70;73.00;;;;;;5081703;28;20028;-67
2021/07/30 02:40:57;;;;;;;7.10;2.92;;;17.80;73.10;;;;;;5092696;28;20054;-66
2021/07/30 02:43:26;;;;;;;11.63;4.05;;;17.70;73.00;;;;;;5090930;28;20083;-66
2021/07/30 02:45:51;;;;;;;7.53;3.03;;;17.70;73.40;;;;;;5092808;28;20024;-66
2021/07/30 02:48:17;;;;;;;7.03;2.80;;;17.70;73.20;;;;;;5090053;28;20044;-67
2021/07/30 02:50:43;;;;;;;9.57;3.10;;;17.70;73.10;;;;;;5092685;28;20059;-66
2021/07/30 02:53:08;;;;;;;6.45;2.70;;;17.70;73.00;;;;;;5091637;28;20067;-66
2021/07/30 02:55:34;;;;;;;12.57;4.38;;;17.70;72.90;;;;;;5090483;28;20027;-66
2021/07/30 02:57:59;;;;;;;7.70;2.88;;;17.70;73.10;;;;;;5091518;28;20036;-66
2021/07/30 03:00:25;;;;;;;9.60;4.25;;;17.70;72.90;;;;;;5090192;28;20392;-67
2021/07/30 03:02:51;;;;;;;10.80;4.85;;;17.70;73.20;;;;;;5091695;28;20088;-66
2021/07/30 03:05:17;;;;;;;13.20;3.53;;;17.70;73.10;;;;;;5091456;28;20044;-67
2021/07/30 03:07:45;;;;;;;9.75;4.22;;;17.70;72.90;;;;;;5086846;28;20024;-66
2021/07/30 03:10:11;;;;;;;13.00;4.75;;;17.70;73.00;;;;;;5091529;28;20378;-66
2021/07/30 03:12:37;;;;;;;11.32;3.38;;;17.70;73.00;;;;;;5090362;28;20130;-67
2021/07/30 03:15:03;;;;;;;11.48;4.22;;;17.70;72.70;;;;;;5092038;28;20031;-67
2021/07/30 03:17:32;;;;;;;12.10;4.75;;;17.70;72.70;;;;;;5090715;28;20483;-67
2021/07/30 03:19:57;;;;;;;11.55;4.18;;;17.70;72.80;;;;;;5089930;28;20023;-67
2021/07/30 03:22:23;;;;;;;14.65;3.78;;;17.70;72.70;;;;;;5091366;28;20490;-67
2021/07/30 03:24:48;;;;;;;11.25;4.47;;;17.60;72.60;;;;;;5091329;28;20035;-67
2021/07/30 03:27:14;;;;;;;13.65;3.65;;;17.60;72.90;;;;;;5092295;28;20119;-67
2021/07/30 03:29:40;;;;;;;10.63;3.35;;;17.60;72.70;;;;;;5091200;28;20522;-66
2021/07/30 03:32:08;;;;;;;16.40;4.80;;;17.60;72.70;;;;;;5091243;28;20103;-66
2021/07/30 03:34:34;;;;;;;13.60;5.60;;;17.60;73.40;;;;;;5091250;28;20476;-66
2021/07/30 03:37:00;;;;;;;12.65;4.65;;;17.50;73.60;;;;;;5091175;28;20032;-66
2021/07/30 03:39:27;;;;;;;13.45;5.30;;;17.50;73.40;;;;;;5090785;28;20055;-67
2021/07/30 03:41:53;;;;;;;11.10;4.57;;;17.50;73.40;;;;;;5091844;28;20078;-67
2021/07/30 03:44:18;;;;;;;21.95;5.15;;;17.50;73.30;;;;;;5091311;28;20032;-67
2021/07/30 03:46:44;;;;;;;9.45;4.30;;;17.50;73.60;;;;;;5088690;28;20029;-66
2021/07/30 03:49:10;;;;;;;6.35;2.90;;;17.50;73.50;;;;;;5091197;28;20096;-67
2021/07/30 03:51:35;;;;;;;8.32;2.78;;;17.40;73.40;;;;;;5090740;28;20066;-66
2021/07/30 03:54:01;;;;;;;12.23;3.88;;;17.40;73.50;;;;;;5090807;28;20032;-66
2021/07/30 03:56:27;;;;;;;9.77;3.55;;;17.40;73.80;;;;;;5090890;28;20039;-66
2021/07/30 03:58:52;;;;;;;6.97;2.20;;;17.40;74.00;;;;;;5090336;28;20024;-66
2021/07/30 04:01:18;;;;;;;8.45;3.60;;;17.40;74.10;;;;;;5090260;28;20023;-67
2021/07/30 04:03:44;;;;;;;13.30;4.40;;;17.30;74.40;;;;;;5091049;28;20414;-66
2021/07/30 04:06:11;;;;;;;4.50;2.92;;;17.30;74.50;;;;;;5090290;28;20024;-67
2021/07/30 04:08:38;;;;;;;15.35;5.35;;;17.30;74.30;;;;;;5089110;28;20108;-66
2021/07/30 04:11:04;;;;;;;8.85;3.50;;;17.30;74.90;;;;;;5089119;28;20029;-66
2021/07/30 04:13:33;;;;;;;9.20;3.63;;;17.20;74.90;;;;;;5089902;28;20494;-66
2021/07/30 04:16:06;;;;;;;10.27;4.93;;;17.20;75.00;;;;;;5092366;28;20036;-67
2021/07/30 04:18:33;;;;;;;10.90;3.38;;;17.20;75.70;;;;;;5092714;28;20440;-67
2021/07/30 04:20:59;;;;;;;14.48;4.07;;;17.20;75.10;;;;;;5093673;28;20474;-66
2021/07/30 04:23:25;;;;;;;14.93;4.47;;;17.20;75.20;;;;;;5094949;28;20028;-66
2021/07/30 04:25:51;;;;;;;11.60;4.60;;;17.20;75.30;;;;;;5094942;28;20024;-67
2021/07/30 04:28:16;;;;;;;17.00;4.18;;;17.20;75.50;;;;;;5093873;28;20020;-66
2021/07/30 04:30:42;;;;;;;19.35;4.60;;;17.20;75.20;;;;;;5094434;28;20035;-67
2021/07/30 04:33:09;;;;;;;11.50;4.57;;;17.20;75.30;;;;;;5093207;28;20127;-67
2021/07/30 04:35:38;;;;;;;10.27;4.30;;;17.20;75.30;;;;;;5091741;28;20024;-66
2021/07/30 04:38:04;;;;;;;11.13;4.63;;;17.20;75.20;;;;;;5093923;28;20024;-66
2021/07/30 04:40:30;;;;;;;11.05;4.28;;;17.20;75.10;;;;;;5093866;28;20028;-66
2021/07/30 04:42:57;;;;;;;18.60;4.57;;;17.20;75.10;;;;;;5093136;28;20031;-67
2021/07/30 04:45:23;;;;;;;16.73;4.00;;;17.30;75.10;;;;;;5093842;28;20089;-66
2021/07/30 04:47:49;;;;;;;9.40;4.10;;;17.20;75.00;;;;;;5094288;28;20020;-67
2021/07/30 04:50:14;;;;;;;11.00;3.63;;;17.20;75.20;;;;;;5093658;28;20026;-67
2021/07/30 04:52:40;;;;;;;5.90;2.72;;;17.20;75.00;;;;;;5094501;28;20042;-67
2021/07/30 04:55:06;;;;;;;8.43;3.13;;;17.30;75.00;;;;;;5093280;28;20096;-66
2021/07/30 04:57:32;;;;;;;6.15;2.58;;;17.30;75.00;;;;;;5094024;28;20036;-66
2021/07/30 04:59:58;;;;;;;17.77;5.45;;;17.20;75.60;;;;;;5093734;28;20020;-66
2021/07/30 05:02:23;;;;;;;10.30;3.78;;;17.20;75.30;;;;;;5092710;28;20489;-66
2021/07/30 05:04:49;;;;;;;10.90;5.07;;;17.20;75.10;;;;;;5094529;28;20532;-66
2021/07/30 05:07:15;;;;;;;9.63;4.15;;;17.20;75.40;;;;;;5090917;28;20515;-66
2021/07/30 05:09:41;;;;;;;9.30;4.43;;;17.30;75.40;;;;;;5093385;28;20047;-66
2021/07/30 05:12:07;;;;;;;7.00;2.15;;;17.20;75.30;;;;;;5093199;28;20391;-66
2021/07/30 05:14:32;;;;;;;6.10;3.83;;;17.20;75.00;;;;;;5094316;28;20032;-66
2021/07/30 05:16:58;;;;;;;7.28;3.20;;;17.30;75.50;;;;;;5093565;28;20040;-66
2021/07/30 05:19:24;;;;;;;7.28;1.40;;;17.20;75.70;;;;;;5093217;28;20577;-66
2021/07/30 05:21:50;;;;;;;13.98;4.32;;;17.20;75.50;;;;;;5094147;28;20032;-66
2021/07/30 05:24:15;;;;;;;11.05;4.63;;;17.20;76.00;;;;;;5092384;28;20510;-66
2021/07/30 05:26:41;;;;;;;8.02;3.35;;;17.20;76.10;;;;;;5094277;28;20054;-66
2021/07/30 05:29:07;;;;;;;23.83;5.82;;;17.20;76.30;;;;;;5092875;28;20059;-66
2021/07/30 05:31:34;;;;;;;10.85;2.85;;;17.20;76.90;;;;;;5092854;28;20036;-66
2021/07/30 05:33:59;;;;;;;8.93;3.25;;;17.20;76.30;;;;;;5093852;28;20028;-66
2021/07/30 05:36:25;;;;;;;7.80;3.50;;;17.20;76.20;;;;;;5093038;28;20050;-66
2021/07/30 05:38:51;;;;;;;6.28;2.35;;;17.20;76.50;;;;;;5093851;28;20048;-66
2021/07/30 05:41:17;;;;;;;1.98;1.20;;;17.10;76.40;;;;;;5092717;28;20100;-66
2021/07/30 05:43:44;;;;;;;6.75;2.95;;;17.10;76.60;;;;;;5093735;28;20026;-66
2021/07/30 05:46:13;;;;;;;5.40;3.33;;;17.10;77.00;;;;;;5092813;28;20110;-66
2021/07/30 05:48:38;;;;;;;10.90;2.72;;;17.20;77.00;;;;;;5091399;28;20024;-66
2021/07/30 05:51:04;;;;;;;15.48;4.47;;;17.10;77.00;;;;;;5092786;28;20486;-66
2021/07/30 05:53:30;;;;;;;9.77;4.05;;;17.20;77.70;;;;;;5092047;28;20490;-66
2021/07/30 05:55:56;;;;;;;9.80;3.78;;;17.20;77.60;;;;;;5093524;28;20046;-66
2021/07/30 05:58:21;;;;;;;14.00;5.05;;;17.20;77.50;;;;;;5091464;28;20052;-66
2021/07/30 06:00:47;;;;;;;13.88;3.55;;;17.20;77.80;;;;;;5093089;28;20119;-66
2021/07/30 06:03:12;;;;;;;25.15;4.20;;;17.20;77.50;;;;;;5093296;28;20039;-66
2021/07/30 06:05:38;;;;;;;12.85;4.03;;;17.30;77.60;;;;;;5091791;28;20024;-66
2021/07/30 06:08:05;;;;;;;9.50;3.42;;;17.30;77.80;;;;;;5092858;28;20028;-67
2021/07/30 06:10:31;;;;;;;13.25;3.83;;;17.30;77.90;;;;;;5093466;28;20032;-66
2021/07/30 06:12:57;;;;;;;5.32;2.80;;;17.30;78.40;;;;;;5092167;28;20441;-66
2021/07/30 06:15:23;;;;;;;11.13;3.63;;;17.30;77.80;;;;;;5093013;28;20134;-66
2021/07/30 06:17:50;;;;;;;7.47;2.97;;;17.30;78.20;;;;;;5092369;28;20495;-66
2021/07/30 06:20:15;;;;;;;7.47;3.35;;;17.30;78.20;;;;;;5092252;28;20039;-66
2021/07/30 06:22:41;;;;;;;11.25;4.22;;;17.30;78.40;;;;;;5091767;28;20024;-66
2021/07/30 06:25:08;;;;;;;13.05;3.90;;;17.40;78.80;;;;;;5092731;28;20035;-66
2021/07/30 06:27:36;;;;;;;4.20;2.95;;;17.40;78.90;;;;;;5091611;28;20036;-66
2021/07/30 06:30:03;;;;;;;13.38;5.03;;;17.40;79.00;;;;;;5092229;28;20030;-66
2021/07/30 06:32:29;;;;;;;3.85;2.15;;;17.40;79.60;;;;;;5092083;28;20020;-66
2021/07/30 06:34:55;;;;;;;13.80;3.00;;;17.40;79.40;;;;;;5091675;28;20360;-66
2021/07/30 06:37:21;;;;;;;4.90;2.53;;;17.40;79.60;;;;;;5092100;28;20113;-66
2021/07/30 06:39:46;;;;;;;9.63;2.45;;;17.40;79.30;;;;;;5091361;28;20050;-66
2021/07/30 06:42:12;;;;;;;9.88;3.35;;;17.40;79.10;;;;;;5091235;28;20414;-66
2021/07/30 06:44:38;;;;;;;10.13;2.90;;;17.50;79.60;;;;;;5092155;28;20479;-68
2021/07/30 06:47:04;;;;;;;8.77;3.13;;;17.50;79.30;;;;;;5091988;28;20487;-69
2021/07/30 06:49:30;;;;;;;5.00;2.63;;;17.50;79.20;;;;;;5091175;28;20023;-67
2021/07/30 06:51:56;;;;;;;13.93;4.35;;;17.50;79.60;;;;;;5091522;28;20082;-71
2021/07/30 06:54:23;;;;;;;12.68;3.78;;;17.60;80.00;;;;;;5091360;28;20467;-66
2021/07/30 06:56:49;;;;;;;8.15;2.03;;;17.60;79.60;;;;;;5090238;28;20072;-66
2021/07/30 06:59:15;;;;;;;14.52;3.88;;;17.60;79.90;;;;;;5091734;28;20054;-66
2021/07/30 07:01:40;;;;;;;5.70;2.35;;;17.60;80.40;;;;;;5090246;28;20052;-66
2021/07/30 07:04:06;;;;;;;8.23;3.40;;;17.60;80.10;;;;;;5091554;28;20039;-66
2021/07/30 07:06:32;;;;;;;5.60;2.85;;;17.60;80.30;;;;;;5092034;28;20028;-67
2021/07/30 07:08:57;;;;;;;5.50;2.13;;;17.70;80.70;;;;;;5088511;28;20038;-67
2021/07/30 07:11:23;;;;;;;4.22;2.83;;;17.70;81.30;;;;;;5091565;28;20028;-67
2021/07/30 07:13:48;;;;;;;5.72;2.35;;;17.70;80.90;;;;;;5090917;28;20028;-67
2021/07/30 07:16:21;;;;;;;11.27;3.78;;;17.70;81.30;;;;;;5090434;28;20040;-67
2021/07/30 07:18:47;;;;;;;11.35;2.38;;;17.70;81.60;;;;;;5090852;28;20379;-69
2021/07/30 07:21:15;;;;;;;12.60;1.95;;;17.80;81.50;;;;;;5089994;28;20417;-67
2021/07/30 07:23:42;;;;;;;9.18;2.50;;;17.80;81.70;;;;;;5087157;28;20028;-67
2021/07/30 07:26:08;;;;;;;9.25;2.55;;;17.80;81.80;;;;;;5090136;28;20074;-67
2021/07/30 07:28:34;;;;;;;10.32;2.90;;;17.80;81.80;;;;;;5089854;28;20488;-67
2021/07/30 07:31:00;;;;;;;5.68;2.38;;;17.90;82.10;;;;;;5089144;28;20107;-67
2021/07/30 07:33:28;;;;;;;5.50;2.70;;;17.90;82.10;;;;;;5090251;28;20081;-67
2021/07/30 07:35:54;;;;;;;9.60;2.28;;;17.90;82.60;;;;;;5089656;28;20376;-67
2021/07/30 07:38:20;;;;;;;6.05;3.30;;;17.90;82.30;;;;;;5088409;28;20032;-67
2021/07/30 07:40:46;;;;;;;8.20;3.22;;;17.90;82.40;;;;;;5090275;28;20024;-67
2021/07/30 07:43:12;;;;;;;7.82;3.22;;;18.00;82.60;;;;;;5089599;28;20035;-67
2021/07/30 07:45:37;;;;;;;10.35;2.97;;;18.00;82.60;;;;;;5089216;28;20076;-67
2021/07/30 07:48:04;;;;;;;5.30;1.73;;;18.10;82.70;;;;;;5089798;28;20111;-67
2021/07/30 07:50:33;;;;;;;13.73;4.78;;;18.00;82.60;;;;;;5090957;28;20472;-67
2021/07/30 07:52:59;;;;;;;23.20;5.68;;;18.10;82.90;;;;;;5090480;28;20035;-67
2021/07/30 07:55:24;;;;;;;9.05;2.95;;;18.10;83.00;;;;;;5094173;28;20024;-67
2021/07/30 07:57:50;;;;;;;2.88;2.00;;;18.20;82.60;;;;;;5093358;28;20494;-67
2021/07/30 08:00:16;;;;;;;7.50;2.78;;;18.20;82.60;;;;;;5093138;28;20024;-67
2021/07/30 08:02:42;;;;;;;10.05;2.90;;;18.20;82.60;;;;;;5093892;28;20081;-67
2021/07/30 08:05:08;;;;;;;6.82;2.80;;;18.30;82.90;;;;;;5092663;28;20085;-67
2021/07/30 08:07:34;;;;;;;2.58;1.55;;;18.30;82.90;;;;;;5094257;28;20031;-67
2021/07/30 08:10:00;;;;;;;8.52;2.25;;;18.40;82.80;;;;;;5095541;28;20127;-67
2021/07/30 08:12:25;;;;;;;9.18;4.30;;;18.30;82.80;;;;;;5093952;28;20131;-67
2021/07/30 08:14:51;;;;;;;9.20;3.40;;;18.40;82.90;;;;;;5095679;28;20024;-80
2021/07/30 08:17:17;;;;;;;5.72;2.55;;;18.50;83.10;;;;;;5093832;28;20070;-68
2021/07/30 08:19:47;;;;;;;10.95;3.38;;;18.50;82.90;;;;;;5094378;28;20031;-67
2021/07/30 08:22:13;;;;;;;10.45;3.53;;;18.60;83.00;;;;;;5092136;28;20035;-68
2021/07/30 08:24:39;;;;;;;11.60;4.63;;;18.60;82.60;;;;;;5092497;28;20038;-67
2021/07/30 08:27:06;;;;;;;11.57;4.28;;;18.70;83.10;;;;;;5091516;28;20028;-68
2021/07/30 08:29:32;;;;;;;15.00;2.60;;;18.70;83.20;;;;;;5093264;28;20035;-68
2021/07/30 08:31:58;;;;;;;3.63;2.00;;;18.70;82.80;;;;;;5092668;28;20028;-68
2021/07/30 08:34:24;;;;;;;0.95;0.90;;;18.80;82.80;;;;;;5092271;28;20056;-67
2021/07/30 08:36:50;;;;;;;2.92;1.42;;;18.80;82.50;;;;;;5093391;28;20063;-67
2021/07/30 08:39:18;;;;;;;18.38;5.15;;;18.90;82.90;;;;;;5092284;28;20038;-67
2021/07/30 08:41:47;;;;;;;12.80;3.05;;;19.00;83.20;;;;;;5091907;28;20027;-68
2021/07/30 08:44:13;;;;;;;9.05;2.92;;;19.00;82.50;;;;;;5093600;28;20039;-68
2021/07/30 08:46:41;;;;;;;7.28;3.05;;;19.00;82.30;;;;;;5092638;28;20046;-68
2021/07/30 08:49:08;;;;;;;3.15;1.58;;;19.00;82.20;;;;;;5090340;28;20532;-68
2021/07/30 08:51:39;;;;;;;6.07;2.20;;;19.10;82.20;;;;;;5091678;28;20040;-68
2021/07/30 08:54:04;;;;;;;11.35;3.17;;;19.10;82.40;;;;;;5091383;28;20103;-67
2021/07/30 08:56:31;;;;;;;9.73;2.42;;;19.20;82.40;;;;;;5092538;28;20115;-68
2021/07/30 08:58:56;;;;;;;1.55;1.25;;;19.20;82.20;;;;;;5091295;28;20531;-68
2021/07/30 09:01:25;;;;;;;4.75;2.58;;;19.20;82.10;;;;;;5089105;28;20155;-68
2021/07/30 09:03:50;;;;;;;8.77;3.92;;;19.20;81.90;;;;;;5090683;28;20379;-67
2021/07/30 09:06:21;;;;;;;20.23;4.63;;;19.30;81.90;;;;;;5091734;28;20111;-67
2021/07/30 09:09:02;;;;;;;2.88;1.77;;;19.40;81.80;;;;;;5090269;28;20028;-68
2021/07/30 09:11:34;;;;;;;5.85;1.55;;;19.50;81.50;;;;;;5089105;28;20071;-67
2021/07/30 09:14:02;;;;;;;4.57;1.65;;;19.50;81.60;;;;;;5089678;28;20528;-67
2021/07/30 09:16:28;;;;;;;6.57;2.80;;;19.50;81.40;;;;;;5091564;28;20058;-67
2021/07/30 09:18:54;;;;;;;6.60;2.85;;;19.50;81.40;;;;;;5091740;28;20032;-68
2021/07/30 09:21:36;;;;;;;4.15;2.10;;;19.60;81.20;;;;;;5091937;28;20042;-68
2021/07/30 09:24:11;;;;;;;3.55;2.20;;;19.60;81.10;;;;;;5090518;28;20012;-68
2021/07/30 09:26:48;;;;;;;11.93;4.32;;;19.60;81.20;;;;;;5092408;28;20032;-68
2021/07/30 09:29:17;;;;;;;10.25;4.07;;;19.70;81.20;;;;;;5091285;28;20024;-68
2021/07/30 09:31:46;;;;;;;10.02;2.78;;;19.70;81.10;;;;;;5091489;28;20067;-69
2021/07/30 09:34:16;;;;;;;5.75;1.98;;;19.70;81.10;;;;;;5090711;28;20035;-68
2021/07/30 09:36:46;;;;;;;12.77;3.53;;;19.70;81.00;;;;;;5090739;28;20063;-67
2021/07/30 09:39:13;;;;;;;7.57;3.03;;;19.80;81.00;;;;;;5090948;28;20075;-67
2021/07/30 09:41:39;;;;;;;8.57;3.35;;;19.90;80.80;;;;;;5093612;28;20413;-68
2021/07/30 09:44:06;;;;;;;7.90;3.45;;;19.90;80.70;;;;;;5092196;28;20081;-68
2021/07/30 09:46:32;;;;;;;14.80;4.63;;;20.00;80.60;;;;;;5092480;28;20032;-68
2021/07/30 09:49:00;;;;;;;6.68;2.55;;;20.00;80.60;;;;;;5093292;28;20030;-67
2021/07/30 09:51:27;;;;;;;13.85;3.60;;;20.10;80.70;;;;;;5091991;28;20082;-68
2021/07/30 09:53:54;;;;;;;5.40;1.92;;;20.10;80.30;;;;;;5093522;28;20536;-67
2021/07/30 09:56:22;;;;;;;1.83;1.35;;;20.20;80.30;;;;;;5092345;28;20414;-68
2021/07/30 09:58:54;;;;;;;5.40;2.22;;;20.20;80.00;;;;;;5091900;28;20470;-68
2021/07/30 10:01:22;;;;;;;3.90;1.80;;;20.20;79.70;;;;;;5092944;28;20067;-68
2021/07/30 10:03:53;;;;;;;2.75;1.45;;;20.30;79.70;;;;;;5093208;28;20463;-68
2021/07/30 10:06:22;;;;;;;5.90;1.80;;;20.30;79.40;;;;;;5092087;28;20491;-68
2021/07/30 10:08:47;;;;;;;6.00;2.17;;;20.30;79.30;;;;;;5093204;28;20036;-69
2021/07/30 10:11:14;;;;;;;3.00;1.83;;;20.30;79.10;;;;;;5091788;28;20476;-68
2021/07/30 10:13:51;;;;;;;14.20;2.92;;;20.40;78.90;;;;;;5089985;28;20600;-67
2021/07/30 10:16:18;;;;;;;11.35;4.93;;;20.40;79.00;;;;;;5091869;28;20036;-67
2021/07/30 10:18:47;;;;;;;8.93;2.90;;;20.50;78.60;;;;;;5091413;28;20023;-67
2021/07/30 10:21:19;;;;;;;5.50;1.77;;;20.50;78.80;;;;;;5091492;28;20119;-67
2021/07/30 10:23:49;;;;;;;6.43;2.97;;;20.60;78.90;;;;;;5091833;28;20093;-67
2021/07/30 10:26:17;;;;;;;14.75;4.00;;;20.70;79.00;;;;;;5092733;28;20028;-75
2021/07/30 10:28:43;;;;;;;2.42;1.83;;;20.70;78.20;;;;;;5092495;28;20024;-70
2021/07/30 10:31:12;;;;;;;7.05;3.22;;;20.80;78.20;;;;;;5091997;28;20520;-69
2021/07/30 10:33:46;;;;;;;13.25;3.47;;;20.80;77.70;;;;;;5090773;28;20036;-68
2021/07/30 10:36:42;;;;;;;;;;;20.90;77.40;;;;;;5090446;28;20514;-72
2021/07/30 10:39:15;;;;;;;6.78;2.28;;;20.90;77.70;;;;;;5077990;28;19912;-74
2021/07/30 10:42:01;;;;;;;;;;;21.00;77.20;;;;;;5090175;28;20106;-71
2021/07/30 10:44:27;;;;;;;6.55;2.13;;;20.90;77.10;;;;;;5079293;28;19915;-68
2021/07/30 10:47:19;;;;;;;10.00;2.67;;;21.00;76.50;;;;;;5090571;28;20032;-68
2021/07/30 10:49:45;;;;;;;6.18;2.67;;;21.00;76.20;;;;;;5091854;28;20773;-67
2021/07/30 10:52:26;;;;;;;6.05;2.00;;;21.10;75.90;;;;;;5091981;28;20081;-72
2021/07/30 10:54:51;;;;;;;7.63;2.38;;;21.10;76.10;;;;;;5091316;28;20031;-70
2021/07/30 10:57:49;;;;;;;7.00;2.97;;;21.20;75.90;;;;;;5092281;28;20156;-68
2021/07/30 11:00:15;;;;;;;19.92;2.97;;;21.30;75.10;;;;;;5091309;28;20027;-68
2021/07/30 11:03:05;;;;;;;3.75;1.75;;;21.20;75.00;;;;;;5091083;28;20026;-68
2021/07/30 11:05:31;;;;;;;6.97;2.17;;;21.30;75.30;;;;;;5091664;28;20081;-68
2021/07/30 11:08:03;;;;;;;2.50;1.27;;;21.40;74.60;;;;;;5087809;28;20839;-68
2021/07/30 11:10:29;;;;;;;8.18;3.35;;;21.40;74.60;;;;;;5092229;28;20032;-68
2021/07/30 11:12:56;;;;;;;6.25;1.75;;;21.50;73.30;;;;;;5086371;28;20441;-67
2021/07/30 11:15:30;;;;;;;2.80;1.17;;;21.50;73.90;;;;;;5091231;28;20062;-67
2021/07/30 11:18:00;;;;;;;1.75;1.15;;;21.50;73.60;;;;;;5090543;28;20040;-68
2021/07/30 11:20:31;;;;;;;3.90;2.10;;;21.50;73.50;;;;;;5092129;28;20032;-68
2021/07/30 11:23:04;;;;;;;1.33;1.00;;;21.60;73.30;;;;;;5089995;28;20637;-68
2021/07/30 11:25:30;;;;;;;5.50;2.60;;;21.60;73.70;;;;;;5092157;28;20080;-68
2021/07/30 11:27:59;;;;;;;5.30;3.10;;;21.70;72.90;;;;;;5091226;28;20430;-68
2021/07/30 11:30:31;;;;;;;11.73;2.90;;;21.80;72.90;;;;;;5091417;28;20028;-68
2021/07/30 11:32:58;;;;;;;3.92;2.03;;;21.80;72.70;;;;;;5091077;28;20024;-67
2021/07/30 11:35:27;;;;;;;9.55;3.60;;;21.80;72.80;;;;;;5092066;28;20111;-68
2021/07/30 11:38:02;;;;;;;5.90;2.60;;;21.90;72.30;;;;;;5090092;28;20092;-68
2021/07/30 11:40:28;;;;;;;3.95;1.67;;;21.90;72.30;;;;;;5091299;28;20036;-73
2021/07/30 11:43:05;;;;;;;8.77;3.08;;;21.90;72.80;;;;;;5089967;28;20089;-72
2021/07/30 11:45:32;;;;;;;7.25;2.05;;;22.00;72.00;;;;;;5081640;28;20032;-69
2021/07/30 11:47:58;;;;;;;5.50;2.15;;;22.00;72.50;;;;;;5089727;28;20502;-68
2021/07/30 11:50:26;;;;;;;7.47;2.22;;;22.00;72.00;;;;;;5091166;28;20032;-69
2021/07/30 11:52:52;;;;;;;2.72;1.40;;;22.10;72.00;;;;;;5089535;28;20473;-68
2021/07/30 11:55:19;;;;;;;13.13;2.33;;;22.10;72.30;;;;;;5080865;28;20035;-71
2021/07/30 11:57:47;;;;;;;1.75;1.30;;;22.10;71.90;;;;;;5086493;28;20032;-71
2021/07/30 12:00:23;;;;;;;1.92;1.20;;;22.10;72.30;;;;;;5088469;28;20024;-70
2021/07/30 12:02:49;;;;;;;9.52;2.45;;;22.20;72.40;;;;;;5088813;28;20031;-70
2021/07/30 12:05:15;;;;;;;9.90;2.28;;;22.20;71.80;;;;;;5089274;28;20035;-71
2021/07/30 12:07:41;;;;;;;9.02;2.65;;;22.30;72.00;;;;;;5087486;28;20032;-70
2021/07/30 12:10:09;;;;;;;4.63;1.40;;;22.30;71.80;;;;;;5087875;28;20427;-75
2021/07/30 12:12:43;;;;;;;4.50;2.00;;;22.40;72.50;;;;;;5086498;28;20048;-70
2021/07/30 12:15:11;;;;;;;6.47;2.67;;;22.40;72.00;;;;;;5089529;28;20459;-75
2021/07/30 12:17:40;;;;;;;7.28;1.10;;;22.50;71.30;;;;;;5091091;28;20107;-71
2021/07/30 12:20:10;;;;;;;6.10;3.10;;;22.60;71.70;;;;;;5090255;28;20103;-70
2021/07/30 12:22:44;;;;;;;9.15;2.50;;;22.60;70.80;;;;;;5089538;28;20050;-70
2021/07/30 12:25:16;;;;;;;10.82;2.60;;;22.70;70.70;;;;;;5088066;28;20036;-71
2021/07/30 12:27:42;;;;;;;10.18;2.80;;;22.70;70.70;;;;;;5089095;28;20043;-70
2021/07/30 12:30:23;;;;;;;6.50;2.20;;;22.80;70.20;;;;;;5089706;28;20070;-70
2021/07/30 12:32:49;;;;;;;3.65;2.30;;;22.90;70.50;;;;;;5087442;28;20111;-70
2021/07/30 12:35:16;;;;;;;7.82;2.53;;;22.90;70.80;;;;;;5090874;28;20440;-73
2021/07/30 12:38:04;;;;;;;10.18;2.65;;;22.90;71.10;;;;;;5091032;28;20036;-70
2021/07/30 12:40:30;;;;;;;6.53;2.97;;;23.00;71.40;;;;;;5094433;28;20055;-70
2021/07/30 12:43:13;;;;;;;9.25;3.17;;;23.00;71.90;;;;;;5094106;28;20116;-70